Time;durP1;ratioP1;P1;durP2;ratioP2;P2;SDS_P1;SDS_P2;PMS_P1;PMS_P2;Temp;Humidity;BMP_temperature;BMP_pressure;BME280_temperature;BME280_humidity;BME280_pressure;Samples;Min_cycle;Max_cycle;Signal;HPM_P1;HPM_P2
2023/05/10 00:00:22;;;;;;;;;;;;;;;13.65;nan;99847.94;4971610;28;19949;-89
2023/05/10 00:02:47;;;;;;;;;;;;;;;13.65;nan;99860.41;5006858;28;19929;-89
2023/05/10 00:05:13;;;;;;;;;;;;;;;13.65;nan;99857.75;4978260;28;19922;-89
2023/05/10 00:07:38;;;;;;;;;;;;;;;13.67;nan;99856.56;4995333;28;19968;-89
2023/05/10 00:10:04;;;;;;;;;;;;;;;13.69;nan;99857.19;4988725;28;19922;-89
2023/05/10 00:12:29;;;;;;;;;;;;;;;13.69;nan;99857.19;4984193;28;19926;-89
2023/05/10 00:14:54;;;;;;;;;;;;;;;13.71;nan;99862.34;4979897;28;20524;-89
2023/05/10 00:17:20;;;;;;;;;;;;;;;13.73;nan;99855.81;4972567;28;19968;-89
2023/05/10 00:19:45;;;;;;;;;;;;;;;13.76;nan;99860.75;4974024;28;19977;-89
2023/05/10 00:22:10;;;;;;;;;;;;;;;13.79;nan;99862.19;4991546;28;20008;-89
2023/05/10 00:24:36;;;;;;;;;;;;;;;13.79;nan;99857.69;4901908;28;2059103;-88
2023/05/10 00:27:03;;;;;;;;;;;;;;;13.78;nan;99863.22;4978861;28;19932;-89
2023/05/10 00:29:29;;;;;;;;;;;;;;;13.78;nan;99863.22;4995562;28;19943;-89
2023/05/10 00:31:54;;;;;;;;;;;;;;;13.78;nan;99865.88;4996578;28;20049;-89
2023/05/10 00:34:20;;;;;;;;;;;;;;;13.75;nan;99866.25;4982211;28;19948;-89
2023/05/10 00:36:45;;;;;;;;;;;;;;;13.71;nan;99868.47;4979449;28;19918;-89
2023/05/10 00:39:10;;;;;;;;;;;;;;;13.71;nan;99865.81;4996161;28;20131;-87
2023/05/10 00:41:35;;;;;;;;;;;;;;;13.73;nan;99866.44;4977952;28;19926;-89
2023/05/10 00:44:01;;;;;;;;;;;;;;;13.75;nan;99866.25;4982102;28;20009;-89
2023/05/10 00:46:27;;;;;;;;;;;;;;;13.72;nan;99869.28;4994111;28;20298;-88
2023/05/10 00:48:53;;;;;;;;;;;;;;;13.71;nan;99865.00;4994431;28;19936;-88
2023/05/10 00:51:18;;;;;;;;;;;;;;;13.67;nan;99864.53;4988895;28;19998;-90
2023/05/10 00:53:45;;;;;;;;;;;;;;;13.64;nan;99864.09;4966883;28;19918;-89
2023/05/10 00:56:10;;;;;;;;;;;;;;;13.63;nan;99862.44;4968479;28;19921;-90
2023/05/10 00:58:36;;;;;;;;;;;;;;;13.58;nan;99870.97;4996413;28;20000;-89
2023/05/10 01:01:02;;;;;;;;;;;;;;;13.52;nan;99871.72;4979897;28;19961;-89
2023/05/10 01:03:27;;;;;;;;;;;;;;;13.52;nan;99869.06;4996134;28;19925;-87
2023/05/10 01:05:53;;;;;;;;;;;;;;;13.50;nan;99874.56;4984671;28;20594;-88
2023/05/10 01:08:18;;;;;;;;;;;;;;;13.48;nan;99875.75;4987992;28;19941;-89
2023/05/10 01:10:44;;;;;;;;;;;;;;;13.48;nan;99871.28;4989587;28;20005;-89
2023/05/10 01:13:09;;;;;;;;;;;;;;;13.46;nan;99869.81;4994728;28;19921;-89
2023/05/10 01:15:35;;;;;;;;;;;;;;;13.45;nan;99873.50;4995844;28;19925;-90
2023/05/10 01:18:01;;;;;;;;;;;;;;;13.44;nan;99864.66;4987299;28;19921;-89
2023/05/10 01:20:30;;;;;;;;;;;;;;;13.42;nan;99871.19;4983800;28;19928;-90
2023/05/10 01:22:55;;;;;;;;;;;;;;;13.40;nan;99873.22;4994428;28;19922;-90
2023/05/10 01:25:40;;;;;;;;;;;;;;;13.38;nan;99871.56;4994576;28;19948;-90
2023/05/10 01:28:20;;;;;;;;;;;;;;;13.42;nan;99879.16;4994004;28;19922;-90
2023/05/10 01:31:06;;;;;;;;;;;;;;;13.41;nan;99883.66;4978913;28;19921;-87
2023/05/10 01:33:37;;;;;;;;;;;;;;;13.42;nan;99876.50;4995627;28;19926;-89
2023/05/10 01:36:03;;;;;;;;;;;;;;;13.40;nan;99882.00;4993883;28;20297;-90
2023/05/10 01:38:47;;;;;;;;;;;;;;;13.38;nan;99884.84;4986040;28;19928;-89
2023/05/10 01:41:19;;;;;;;;;;;;;;;13.36;nan;99883.38;4994912;28;20694;-88
2023/05/10 01:44:01;;;;;;;;;;;;;;;13.35;nan;99895.03;4975405;28;19926;-88
2023/05/10 01:46:36;;;;;;;;;;;;;;;13.29;nan;99890.44;4975223;28;19928;-90
2023/05/10 01:49:03;;;;;;;;;;;;;;;13.28;nan;99894.13;4985240;28;20505;-91
2023/05/10 01:51:31;;;;;;;;;;;;;;;13.26;nan;99893.44;4964461;28;19917;-90
2023/05/10 01:54:01;;;;;;;;;;;;;;;13.26;nan;99898.75;4976248;28;20369;-90
2023/05/10 01:56:27;;;;;;;;;;;;;;;13.25;nan;99900.59;4976637;28;19921;-90
2023/05/10 01:58:54;;;;;;;;;;;;;;;13.25;nan;99899.75;4976734;28;19929;-89
2023/05/10 02:01:20;;;;;;;;;;;;;;;13.25;nan;99895.28;4995002;28;19918;-89
2023/05/10 02:03:46;;;;;;;;;;;;;;;13.23;nan;99901.75;4994531;28;19926;-89
2023/05/10 02:06:12;;;;;;;;;;;;;;;13.21;nan;99899.31;4996322;28;19929;-89
2023/05/10 02:08:38;;;;;;;;;;;;;;;13.21;nan;99907.28;4988957;28;19957;-89
2023/05/10 02:11:04;;;;;;;;;;;;;;;13.24;nan;99904.25;5001949;28;20037;-87
2023/05/10 02:13:31;;;;;;;;;;;;;;;13.22;nan;99902.78;4999973;28;19950;-89
2023/05/10 02:15:56;;;;;;;;;;;;;;;13.24;nan;99908.72;4985008;28;19930;-89
2023/05/10 02:18:23;;;;;;;;;;;;;;;13.23;nan;99909.72;4990778;28;20383;-89
2023/05/10 02:20:49;;;;;;;;;;;;;;;13.22;nan;99914.22;4998831;28;20461;-88
2023/05/10 02:23:16;;;;;;;;;;;;;;;13.22;nan;99908.91;5000921;28;19926;-88
2023/05/10 02:25:43;;;;;;;;;;;;;;;13.23;nan;99915.03;5006988;28;19942;-90
2023/05/10 02:28:08;;;;;;;;;;;;;;;13.21;nan;99911.75;5003579;28;20016;-89
2023/05/10 02:30:34;;;;;;;;;;;;;;;13.21;nan;99917.06;4996772;28;20387;-88
2023/05/10 02:32:59;;;;;;;;;;;;;;;13.18;nan;99915.59;4987383;28;20153;-85
2023/05/10 02:35:26;;;;;;;;;;;;;;;13.16;nan;99909.66;4995132;28;19929;-88
2023/05/10 02:37:52;;;;;;;;;;;;;;;13.16;nan;99914.97;4989751;28;19922;-88
2023/05/10 02:40:19;;;;;;;;;;;;;;;13.15;nan;99922.09;4977417;28;19946;-89
2023/05/10 02:42:45;;;;;;;;;;;;;;;13.15;nan;99919.44;5003428;28;19977;-89
2023/05/10 02:45:12;;;;;;;;;;;;;;;13.17;nan;99908.63;4984962;28;20009;-90
2023/05/10 02:47:37;;;;;;;;;;;;;;;13.18;nan;99923.56;4981845;28;19921;-88
2023/05/10 02:50:03;;;;;;;;;;;;;;;13.20;nan;99918.88;4988488;28;19926;-89
2023/05/10 02:52:36;;;;;;;;;;;;;;;13.22;nan;99924.00;4993420;28;20400;-89
2023/05/10 02:55:03;;;;;;;;;;;;;;;13.22;nan;99921.38;4989868;28;19921;-89
2023/05/10 02:57:31;;;;;;;;;;;;;;;13.23;nan;99913.22;4983590;28;19975;-89
2023/05/10 02:59:56;;;;;;;;;;;;;;;13.21;nan;99912.59;4984050;28;19925;-89
2023/05/10 03:02:23;;;;;;;;;;;;;;;13.20;nan;99921.53;4996183;28;19922;-86
2023/05/10 03:04:48;;;;;;;;;;;;;;;13.21;nan;99923.19;4979712;28;19926;-87
2023/05/10 03:07:14;;;;;;;;;;;;;;;13.22;nan;99931.97;4982614;28;19937;-88
2023/05/10 03:09:40;;;;;;;;;;;;;;;13.23;nan;99926.50;5003775;28;19948;-89
2023/05/10 03:12:05;;;;;;;;;;;;;;;13.23;nan;99926.50;4990218;28;20004;-90
2023/05/10 03:14:36;;;;;;;;;;;;;;;13.24;nan;99922.00;5004894;28;19932;-88
2023/05/10 03:17:09;;;;;;;;;;;;;;;13.22;nan;99919.53;5002412;28;19933;-88
2023/05/10 03:19:35;;;;;;;;;;;;;;;13.21;nan;99909.94;4978398;28;19956;-88
2023/05/10 03:22:04;;;;;;;;;;;;;;;13.21;nan;99923.19;4986449;28;20007;-89
2023/05/10 03:24:29;;;;;;;;;;;;;;;13.22;nan;99919.53;4995576;28;19991;-89
2023/05/10 03:26:56;;;;;;;;;;;;;;;13.22;nan;99930.16;4984409;28;19930;-87
2023/05/10 03:29:22;;;;;;;;;;;;;;;13.21;nan;99931.16;4977425;28;19933;-88
2023/05/10 03:31:48;;;;;;;;;;;;;;;13.21;nan;99931.16;4981126;28;20428;-88
2023/05/10 03:34:13;;;;;;;;;;;;;;;13.21;nan;99927.69;4999352;28;19926;-86
2023/05/10 03:36:38;;;;;;;;;;;;;;;13.21;nan;99928.50;4979117;28;19921;-89
2023/05/10 03:39:03;;;;;;;;;;;;;;;13.18;nan;99929.69;4993855;28;20376;-87
2023/05/10 03:41:29;;;;;;;;;;;;;;;13.18;nan;99929.69;4991608;28;20421;-89
2023/05/10 03:43:54;;;;;;;;;;;;;;;13.18;nan;99929.69;4975181;28;19922;-89
2023/05/10 03:46:19;;;;;;;;;;;;;;;13.16;nan;99933.56;4975451;28;19960;-88
2023/05/10 03:48:44;;;;;;;;;;;;;;;13.12;nan;99925.13;4976652;28;19940;-89
2023/05/10 03:51:10;;;;;;;;;;;;;;;13.09;nan;99929.97;4975324;28;19917;-87
2023/05/10 03:53:35;;;;;;;;;;;;;;;13.07;nan;99937.28;4976194;28;20321;-89
2023/05/10 03:56:00;;;;;;;;;;;;;;;13.06;nan;99931.16;4975762;28;19925;-88
2023/05/10 03:58:25;;;;;;;;;;;;;;;13.07;nan;99940.78;4975498;28;19928;-88
2023/05/10 04:00:51;;;;;;;;;;;;;;;13.07;nan;99938.13;4992715;28;19926;-88
2023/05/10 04:03:17;;;;;;;;;;;;;;;13.09;nan;99941.41;5007951;28;20274;-88
2023/05/10 04:05:42;;;;;;;;;;;;;;;13.07;nan;99934.66;4975045;28;19926;-87
2023/05/10 04:08:07;;;;;;;;;;;;;;;13.06;nan;99946.25;4974730;28;19930;-89
2023/05/10 04:10:33;;;;;;;;;;;;;;;13.07;nan;99942.59;4973059;28;19925;-88
2023/05/10 04:12:58;;;;;;;;;;;;;;;13.06;nan;99940.94;4988324;28;19922;-89
2023/05/10 04:15:23;;;;;;;;;;;;;;;13.03;nan;99946.63;4991900;28;20473;-90
2023/05/10 04:17:50;;;;;;;;;;;;;;;13.00;nan;99952.31;4991606;28;19949;-88
2023/05/10 04:20:15;;;;;;;;;;;;;;;12.96;nan;99955.28;4979688;28;19945;-89
2023/05/10 04:22:40;;;;;;;;;;;;;;;12.94;nan;99957.34;4976241;28;19929;-89
2023/05/10 04:25:06;;;;;;;;;;;;;;;12.94;nan;99960.00;4990836;28;19956;-87
2023/05/10 04:27:32;;;;;;;;;;;;;;;12.97;nan;99964.09;4998324;28;20373;-88
2023/05/10 04:29:57;;;;;;;;;;;;;;;13.00;nan;99961.09;4997029;28;19922;-88
2023/05/10 04:32:22;;;;;;;;;;;;;;;13.01;nan;99959.25;5008713;28;19930;-88
2023/05/10 04:34:48;;;;;;;;;;;;;;;13.04;nan;99962.38;4990889;28;20400;-88
2023/05/10 04:37:13;;;;;;;;;;;;;;;13.01;nan;99960.06;4992984;28;20396;-88
2023/05/10 04:39:39;;;;;;;;;;;;;;;13.03;nan;99968.66;5001873;28;19921;-88
2023/05/10 04:42:05;;;;;;;;;;;;;;;13.03;nan;99963.38;4992223;28;19927;-87
2023/05/10 04:44:30;;;;;;;;;;;;;;;13.05;nan;99968.50;4986105;28;20408;-88
2023/05/10 04:46:56;;;;;;;;;;;;;;;13.08;nan;99968.94;5006013;28;19925;-87
2023/05/10 04:49:21;;;;;;;;;;;;;;;13.09;nan;99973.25;5005607;28;20021;-88
2023/05/10 04:51:46;;;;;;;;;;;;;;;13.09;nan;99980.41;4992858;28;19922;-88
2023/05/10 04:54:12;;;;;;;;;;;;;;;13.10;nan;99979.41;4988368;28;19921;-88
2023/05/10 04:56:37;;;;;;;;;;;;;;;13.10;nan;99977.56;4998595;28;20004;-88
2023/05/10 04:59:02;;;;;;;;;;;;;;;13.09;nan;99980.41;4998539;28;19929;-87
2023/05/10 05:01:28;;;;;;;;;;;;;;;13.07;nan;99977.94;5003312;28;20040;-89
2023/05/10 05:03:53;;;;;;;;;;;;;;;13.08;nan;99987.53;5006783;28;19935;-90
2023/05/10 05:06:18;;;;;;;;;;;;;;;13.08;nan;99984.88;5015358;28;19937;-89
2023/05/10 05:08:44;;;;;;;;;;;;;;;13.12;nan;99986.16;5002898;28;19933;-89
2023/05/10 05:11:09;;;;;;;;;;;;;;;13.15;nan;99990.28;4995462;28;19929;-88
2023/05/10 05:13:34;;;;;;;;;;;;;;;13.13;nan;99994.94;4990476;28;19944;-89
2023/05/10 05:16:00;;;;;;;;;;;;;;;13.15;nan;99991.09;4991915;28;19929;-89
2023/05/10 05:18:25;;;;;;;;;;;;;;;13.19;nan;99994.22;4997670;28;20017;-90
2023/05/10 05:20:51;;;;;;;;;;;;;;;13.23;nan;99992.88;5001283;28;19926;-89
2023/05/10 05:23:16;;;;;;;;;;;;;;;13.27;nan;99999.47;4992565;28;19922;-89
2023/05/10 05:25:42;;;;;;;;;;;;;;;13.32;nan;99999.78;5008251;28;20281;-88
2023/05/10 05:28:07;;;;;;;;;;;;;;;13.38;nan;100000.88;4991893;28;20333;-88
2023/05/10 05:30:32;;;;;;;;;;;;;;;13.45;nan;100003.63;4990553;28;19922;-89
2023/05/10 05:32:57;;;;;;;;;;;;;;;13.50;nan;100002.06;4990664;28;20401;-89
2023/05/10 05:35:22;;;;;;;;;;;;;;;13.58;nan;100006.44;4993233;28;19922;-90
2023/05/10 05:37:48;;;;;;;;;;;;;;;13.65;nan;100009.19;4991969;28;20318;-87
2023/05/10 05:40:13;;;;;;;;;;;;;;;13.69;nan;100008.66;4992059;28;19922;-88
2023/05/10 05:42:39;;;;;;;;;;;;;;;13.69;nan;100013.97;4991224;28;19980;-89
2023/05/10 05:45:05;;;;;;;;;;;;;;;13.71;nan;100014.59;4991102;28;19976;-88
2023/05/10 05:47:30;;;;;;;;;;;;;;;13.72;nan;100013.56;4991072;28;19972;-87
2023/05/10 05:49:55;;;;;;;;;;;;;;;13.72;nan;100020.72;4990765;28;19918;-88
2023/05/10 05:52:21;;;;;;;;;;;;;;;13.74;nan;100016.06;4990287;28;20012;-88
2023/05/10 05:54:46;;;;;;;;;;;;;;;13.79;nan;100017.16;4990773;28;19918;-89
2023/05/10 05:57:11;;;;;;;;;;;;;;;13.84;nan;100021.09;4991698;28;19972;-88
2023/05/10 05:59:41;;;;;;;;;;;;;;;13.91;nan;100019.34;4990027;28;19922;-88
2023/05/10 06:02:07;;;;;;;;;;;;;;;13.93;nan;100022.63;4984825;28;19922;-90
2023/05/10 06:04:32;;;;;;;;;;;;;;;13.96;nan;100016.94;4992304;28;19933;-89
2023/05/10 06:06:57;;;;;;;;;;;;;;;13.97;nan;100026.56;4990971;28;20017;-86
2023/05/10 06:09:24;;;;;;;;;;;;;;;13.95;nan;100032.06;4989060;28;19965;-88
2023/05/10 06:11:49;;;;;;;;;;;;;;;13.92;nan;100037.75;4985769;28;20420;-88
2023/05/10 06:14:14;;;;;;;;;;;;;;;13.90;nan;100044.28;5010858;28;19922;-86
2023/05/10 06:16:40;;;;;;;;;;;;;;;13.89;nan;100042.63;4988089;28;20400;-87
2023/05/10 06:19:05;;;;;;;;;;;;;;;13.88;nan;100038.31;4997370;28;20000;-86
2023/05/10 06:21:30;;;;;;;;;;;;;;;13.90;nan;100038.97;5001181;28;19932;-86
2023/05/10 06:23:55;;;;;;;;;;;;;;;13.94;nan;100037.56;5004324;28;19932;-87
2023/05/10 06:26:21;;;;;;;;;;;;;;;14.01;nan;100036.66;5008479;28;19921;-88
2023/05/10 06:28:46;;;;;;;;;;;;;;;14.12;nan;100045.16;5006090;28;19979;-87
2023/05/10 06:31:12;;;;;;;;;;;;;;;14.21;nan;100049.34;5001233;28;19930;-86
2023/05/10 06:33:37;;;;;;;;;;;;;;;14.28;nan;100052.91;5010894;28;19925;-90
2023/05/10 06:36:03;;;;;;;;;;;;;;;14.33;nan;100052.34;5007078;28;19922;-89
2023/05/10 06:38:28;;;;;;;;;;;;;;;14.37;nan;100054.44;5001393;28;19972;-87
2023/05/10 06:40:53;;;;;;;;;;;;;;;14.44;nan;100051.84;5010554;28;20212;-87
2023/05/10 06:43:18;;;;;;;;;;;;;;;14.45;nan;100050.84;5003847;28;19941;-87
2023/05/10 06:45:43;;;;;;;;;;;;;;;14.55;nan;100046.06;4998635;28;20053;-88
2023/05/10 06:48:09;;;;;;;;;;;;;;;14.56;nan;100044.22;5005522;28;19922;-88
2023/05/10 06:50:34;;;;;;;;;;;;;;;14.57;nan;100059.19;4998274;28;19922;-89
2023/05/10 06:53:00;;;;;;;;;;;;;;;14.60;nan;100056.94;5008601;28;19929;-85
2023/05/10 06:55:25;;;;;;;;;;;;;;;14.60;nan;100062.28;4996311;28;20114;-89
2023/05/10 06:57:50;;;;;;;;;;;;;;;14.62;nan;100060.25;5013136;28;19948;-88
2023/05/10 07:00:16;;;;;;;;;;;;;;;14.56;nan;100060.19;5010516;28;19949;-89
2023/05/10 07:02:41;;;;;;;;;;;;;;;14.44;nan;100063.31;5024029;28;19980;-88
2023/05/10 07:05:07;;;;;;;;;;;;;;;14.49;nan;100073.41;5004712;28;19926;-87
2023/05/10 07:07:32;;;;;;;;;;;;;;;14.45;nan;100066.81;4994715;28;19921;-86
2023/05/10 07:09:57;;;;;;;;;;;;;;;14.43;nan;100071.47;4995263;28;19926;-85
2023/05/10 07:12:23;;;;;;;;;;;;;;;14.43;nan;100071.47;4993504;28;20016;-85
2023/05/10 07:14:48;;;;;;;;;;;;;;;14.40;nan;100066.53;4994167;28;19926;-86
2023/05/10 07:17:13;;;;;;;;;;;;;;;14.46;nan;100063.13;4995226;28;19928;-85
2023/05/10 07:19:38;;;;;;;;;;;;;;;14.52;nan;100072.19;4989386;28;20009;-86
2023/05/10 07:22:04;;;;;;;;;;;;;;;14.45;nan;100069.47;4992118;28;19969;-85
2023/05/10 07:24:29;;;;;;;;;;;;;;;14.52;nan;100070.34;4995838;28;19930;-85
2023/05/10 07:26:55;;;;;;;;;;;;;;;14.54;nan;100063.06;4981849;28;20215;-86
2023/05/10 07:29:20;;;;;;;;;;;;;;;14.57;nan;100069.81;4986887;28;20270;-85
2023/05/10 07:31:45;;;;;;;;;;;;;;;14.78;nan;100077.00;4978348;28;19918;-86
2023/05/10 07:34:12;;;;;;;;;;;;;;;14.94;nan;100068.72;4997903;28;20687;-86
2023/05/10 07:36:37;;;;;;;;;;;;;;;15.14;nan;100068.91;4997714;28;19918;-86
2023/05/10 07:39:03;;;;;;;;;;;;;;;15.28;nan;100075.16;4981964;28;19981;-85
2023/05/10 07:41:34;;;;;;;;;;;;;;;15.49;nan;100072.44;4964103;28;20061;-86
2023/05/10 07:44:04;;;;;;;;;;;;;;;15.69;nan;100074.41;4990324;28;20045;-85
2023/05/10 07:46:30;;;;;;;;;;;;;;;15.77;nan;100071.59;4974890;28;19918;-86
2023/05/10 07:48:55;;;;;;;;;;;;;;;15.83;nan;100072.69;4970835;28;20001;-86
2023/05/10 07:51:20;;;;;;;;;;;;;;;15.88;nan;100072.91;4976409;28;19928;-86
2023/05/10 07:53:46;;;;;;;;;;;;;;;16.00;nan;100075.84;4999113;28;19932;-87
2023/05/10 07:56:26;;;;;;;;;;;;;;;16.08;nan;100070.31;4981232;28;19926;-88
2023/05/10 07:58:51;;;;;;;;;;;;;;;16.29;nan;100080.88;4997316;28;19929;-88
2023/05/10 08:01:17;;;;;;;;;;;;;;;16.45;nan;100074.34;5004700;28;20318;-86
2023/05/10 08:03:42;;;;;;;;;;;;;;;16.68;nan;100075.81;4996944;28;20328;-86
2023/05/10 08:06:07;;;;;;;;;;;;;;;16.80;nan;100081.44;4980149;28;20396;-85
2023/05/10 08:08:32;;;;;;;;;;;;;;;16.89;nan;100077.53;4997097;28;19974;-86
2023/05/10 08:10:57;;;;;;;;;;;;;;;16.92;nan;100075.28;4983915;28;19992;-86
2023/05/10 08:13:23;;;;;;;;;;;;;;;17.00;nan;100073.44;4991150;28;19922;-86
2023/05/10 08:15:48;;;;;;;;;;;;;;;16.96;nan;100081.84;4980922;28;19992;-87
2023/05/10 08:18:13;;;;;;;;;;;;;;;16.80;nan;100081.44;4993729;28;19922;-85
2023/05/10 08:20:38;;;;;;;;;;;;;;;16.58;nan;100084.22;4984013;28;19945;-85
2023/05/10 08:23:03;;;;;;;;;;;;;;;16.49;nan;100072.94;4972843;28;19984;-84
2023/05/10 08:25:29;;;;;;;;;;;;;;;16.37;nan;100085.19;5011011;28;19929;-86
2023/05/10 08:27:54;;;;;;;;;;;;;;;16.45;nan;100081.53;4994771;28;20259;-86
2023/05/10 08:30:19;;;;;;;;;;;;;;;16.64;nan;100087.97;5007180;28;19929;-86
2023/05/10 08:32:45;;;;;;;;;;;;;;;16.67;nan;100083.03;4994189;28;19925;-91
2023/05/10 08:35:10;;;;;;;;;;;;;;;16.63;nan;100087.13;5007682;28;19976;-86
2023/05/10 08:37:35;;;;;;;;;;;;;;;16.44;nan;100086.03;5012692;28;19921;-87
2023/05/10 08:40:00;;;;;;;;;;;;;;;16.33;nan;100094.66;5013876;28;19957;-84
2023/05/10 08:42:28;;;;;;;;;;;;;;;16.28;nan;100097.06;5021124;28;19931;-83
2023/05/10 08:44:54;;;;;;;;;;;;;;;16.34;nan;100099.75;5027177;28;19932;-84
2023/05/10 08:47:19;;;;;;;;;;;;;;;16.49;nan;100098.78;5012843;28;19949;-84
2023/05/10 08:49:47;;;;;;;;;;;;;;;16.84;nan;100098.69;5023175;28;19925;-83
2023/05/10 08:52:13;;;;;;;;;;;;;;;17.49;nan;100097.03;5026900;28;19915;-83
2023/05/10 08:54:38;;;;;;;;;;;;;;;18.17;nan;100098.56;5026302;28;19985;-84
2023/05/10 08:57:04;;;;;;;;;;;;;;;18.81;nan;100099.50;5015193;28;19922;-84
2023/05/10 08:59:29;;;;;;;;;;;;;;;19.28;nan;100102.63;5014442;28;19941;-84
2023/05/10 09:01:57;;;;;;;;;;;;;;;19.69;nan;100096.72;5020798;28;19956;-84
2023/05/10 09:04:22;;;;;;;;;;;;;;;20.22;nan;100102.53;5014064;28;19992;-84
2023/05/10 09:06:47;;;;;;;;;;;;;;;20.28;nan;100097.06;5007713;28;19917;-84
2023/05/10 09:09:13;;;;;;;;;;;;;;;20.23;nan;100101.47;5007991;28;19933;-85
2023/05/10 09:11:38;;;;;;;;;;;;;;;20.35;nan;100107.72;5000113;28;19929;-83
2023/05/10 09:14:04;;;;;;;;;;;;;;;20.20;nan;100104.63;4999044;28;19921;-84
2023/05/10 09:16:29;;;;;;;;;;;;;;;19.72;nan;100104.31;5003855;28;19921;-84
2023/05/10 09:18:54;;;;;;;;;;;;;;;19.14;nan;100111.81;5009330;28;19921;-88
2023/05/10 09:21:20;;;;;;;;;;;;;;;18.43;nan;100117.19;5003638;28;19921;-89
2023/05/10 09:28:55;;;;;;;;;;;;;;;15.80;nan;100129.88;4987567;28;19948;-84
2023/05/10 09:31:20;;;;;;;;;;;;;;;15.37;nan;100123.78;4987776;28;20361;-84
2023/05/10 09:33:46;;;;;;;;;;;;;;;15.10;nan;100117.41;4969007;28;20049;-84
2023/05/10 09:36:12;;;;;;;;;;;;;;;14.95;nan;100123.63;4964802;28;19929;-85
2023/05/10 09:38:48;;;;;;;;;;;;;;;14.90;nan;100134.03;4969828;28;20344;-84
2023/05/10 09:41:21;;;;;;;;;;;;;;;14.86;nan;100135.41;4968830;28;19926;-85
2023/05/10 09:43:46;;;;;;;;;;;;;;;14.82;nan;100134.97;4959989;28;19926;-85
2023/05/10 09:46:12;;;;;;;;;;;;;;;14.86;nan;100135.41;4967947;28;20005;-85
2023/05/10 09:48:47;;;;;;;;;;;;;;;14.93;nan;100144.31;4968546;28;19922;-85
2023/05/10 09:51:22;;;;;;;;;;;;;;;15.05;nan;100137.44;4964079;28;19945;-85
2023/05/10 09:53:50;;;;;;;;;;;;;;;15.15;nan;100141.63;4968877;28;20259;-84
2023/05/10 09:56:32;;;;;;;;;;;;;;;15.16;nan;100140.59;4967847;28;19921;-87
2023/05/10 09:59:04;;;;;;;;;;;;;;;15.13;nan;100135.66;4969950;28;19944;-85
2023/05/10 10:01:30;;;;;;;;;;;;;;;15.11;nan;100137.69;4968864;28;19922;-84
2023/05/10 10:03:57;;;;;;;;;;;;;;;15.09;nan;100137.91;4969517;28;19932;-87
2023/05/10 10:06:24;;;;;;;;;;;;;;;15.15;nan;100134.47;4968634;28;19926;-85
2023/05/10 10:08:52;;;;;;;;;;;;;;;15.20;nan;100131.22;4985740;28;20400;-85
2023/05/10 10:11:18;;;;;;;;;;;;;;;15.20;nan;100131.22;4969664;28;19921;-86
2023/05/10 10:13:49;;;;;;;;;;;;;;;15.16;nan;100132.63;4968490;28;20050;-87
2023/05/10 10:16:15;;;;;;;;;;;;;;;15.04;nan;100151.78;4967269;28;19933;-85
2023/05/10 10:18:40;;;;;;;;;;;;;;;14.77;nan;100147.19;4985493;28;19925;-85
2023/05/10 10:21:10;;;;;;;;;;;;;;;14.37;nan;100146.69;4969282;28;19922;-88
2023/05/10 10:23:35;;;;;;;;;;;;;;;13.77;nan;100154.69;4968719;28;19926;-86
2023/05/10 10:26:02;;;;;;;;;;;;;;;13.45;nan;100152.38;4975404;28;19929;-87
2023/05/10 10:28:48;;;;;;;;;;;;;;;13.32;nan;100160.91;4976291;28;19977;-86
2023/05/10 10:31:32;;;;;;;;;;;;;;;13.33;nan;100167.91;4988541;28;19926;-86
2023/05/10 10:34:06;;;;;;;;;;;;;;;13.33;nan;100158.09;4988278;28;20377;-85
2023/05/10 10:36:33;;;;;;;;;;;;;;;13.42;nan;100163.31;4985758;28;19923;-86
2023/05/10 10:39:02;;;;;;;;;;;;;;;13.55;nan;100166.22;4986380;28;20389;-86
2023/05/10 10:41:35;;;;;;;;;;;;;;;13.69;nan;100165.41;4988121;28;20094;-86
2023/05/10 10:44:33;;;;;;;;;;;;;;;13.98;nan;100169.91;4979912;28;20420;-86
2023/05/10 10:47:18;;;;;;;;;;;;;;;14.30;nan;100175.06;4969480;28;19937;-85
2023/05/10 10:50:02;;;;;;;;;;;;;;;14.56;nan;100175.44;4985244;28;19922;-85
2023/05/10 10:52:32;;;;;;;;;;;;;;;14.69;nan;100168.63;4985735;28;19972;-85
2023/05/10 10:54:57;;;;;;;;;;;;;;;14.77;nan;100165.81;4987551;28;19933;-85
2023/05/10 10:57:22;;;;;;;;;;;;;;;14.90;nan;100158.00;4987832;28;19926;-84
2023/05/10 10:59:48;;;;;;;;;;;;;;;15.13;nan;100168.44;4987279;28;19929;-85
2023/05/10 11:02:31;;;;;;;;;;;;;;;15.26;nan;100165.09;4986266;28;19972;-84
2023/05/10 11:04:57;;;;;;;;;;;;;;;15.54;nan;100159.81;5000768;28;19973;-84
2023/05/10 11:07:22;;;;;;;;;;;;;;;15.73;nan;100160.16;4986680;28;20386;-84
2023/05/10 11:09:48;;;;;;;;;;;;;;;15.78;nan;100163.06;4988459;28;19922;-85
2023/05/10 11:12:13;;;;;;;;;;;;;;;15.88;nan;100164.38;4987800;28;20415;-85
2023/05/10 11:14:39;;;;;;;;;;;;;;;16.04;nan;100165.06;4986883;28;20012;-84
2023/05/10 11:17:22;;;;;;;;;;;;;;;16.26;nan;100165.84;4988106;28;20405;-84
2023/05/10 11:20:03;;;;;;;;;;;;;;;16.64;nan;100171.53;4986172;28;19922;-85
2023/05/10 11:22:28;;;;;;;;;;;;;;;16.99;nan;100163.41;4990353;28;19944;-85
2023/05/10 11:24:58;;;;;;;;;;;;;;;17.34;nan;100163.28;4984087;28;20028;-85
2023/05/10 11:27:23;;;;;;;;;;;;;;;17.72;nan;100168.00;4987432;28;19921;-85
2023/05/10 11:29:51;;;;;;;;;;;;;;;18.12;nan;100166.09;4988556;28;19922;-87
2023/05/10 11:32:41;;;;;;;;;;;;;;;18.36;nan;100167.25;4983306;28;19948;-85
2023/05/10 11:35:07;;;;;;;;;;;;;;;18.98;nan;100164.91;5003022;28;19961;-85
2023/05/10 11:37:34;;;;;;;;;;;;;;;19.53;nan;100158.94;4985909;28;19925;-86
2023/05/10 11:40:03;;;;;;;;;;;;;;;19.71;nan;100160.84;4987613;28;19928;-87
2023/05/10 11:42:31;;;;;;;;;;;;;;;19.55;nan;100161.41;4983004;28;19956;-87
2023/05/10 11:45:00;;;;;;;;;;;;;;;19.04;nan;100161.38;4984925;28;19950;-86
2023/05/10 11:47:25;;;;;;;;;;;;;;;18.55;nan;100170.06;4987894;28;20241;-87
2023/05/10 11:49:51;;;;;;;;;;;;;;;18.21;nan;100161.31;4985954;28;19922;-87
2023/05/10 11:52:18;;;;;;;;;;;;;;;17.81;nan;100166.78;4981092;28;19926;-87
2023/05/10 11:54:56;;;;;;;;;;;;;;;17.47;nan;100167.78;4983338;28;19926;-86
2023/05/10 11:57:25;;;;;;;;;;;;;;;17.28;nan;100169.41;4988119;28;19953;-85
2023/05/10 11:59:54;;;;;;;;;;;;;;;17.47;nan;100173.97;4986272;28;19905;-87
2023/05/10 12:02:21;;;;;;;;;;;;;;;18.32;nan;100166.03;4990666;28;19929;-87
2023/05/10 12:05:06;;;;;;;;;;;;;;;19.23;nan;100169.47;4996980;28;19925;-87
2023/05/10 12:07:38;;;;;;;;;;;;;;;19.75;nan;100177.34;4992924;28;20034;-88
2023/05/10 12:10:18;;;;;;;;;;;;;;;20.15;nan;100162.47;4977284;28;20525;-89
2023/05/10 12:12:47;;;;;;;;;;;;;;;20.23;nan;100165.91;4998027;28;19953;-88
2023/05/10 12:15:15;;;;;;;;;;;;;;;20.07;nan;100161.94;4987137;28;19926;-88
2023/05/10 12:18:18;;;;;;;;;;;;;;;20.00;nan;100171.94;4979267;28;19940;-87
2023/05/10 12:20:43;;;;;;;;;;;;;;;19.64;nan;100177.00;4984272;28;19932;-87
2023/05/10 12:23:09;;;;;;;;;;;;;;;19.64;nan;100178.84;4984298;28;19922;-87
2023/05/10 12:25:39;;;;;;;;;;;;;;;19.76;nan;100179.81;4976977;28;19965;-87
2023/05/10 12:28:11;;;;;;;;;;;;;;;20.03;nan;100180.38;4975890;28;20125;-87
2023/05/10 12:30:46;;;;;;;;;;;;;;;20.40;nan;100174.19;4984756;28;19932;-87
2023/05/10 12:33:13;;;;;;;;;;;;;;;20.66;nan;100183.81;4983742;28;20407;-88
2023/05/10 12:35:50;;;;;;;;;;;;;;;20.84;nan;100178.41;4986019;28;19930;-87
2023/05/10 12:38:24;;;;;;;;;;;;;;;20.87;nan;100171.75;4984397;28;19932;-87
2023/05/10 12:40:50;;;;;;;;;;;;;;;20.66;nan;100179.25;4985198;28;19925;-86
2023/05/10 12:43:23;;;;;;;;;;;;;;;20.29;nan;100178.44;4986052;28;19929;-89
2023/05/10 12:45:48;;;;;;;;;;;;;;;19.92;nan;100186.47;4975589;28;19929;-85
2023/05/10 12:48:16;;;;;;;;;;;;;;;19.50;nan;100183.53;4977091;28;20294;-87
2023/05/10 12:50:42;;;;;;;;;;;;;;;19.27;nan;100184.09;4980986;28;19923;-88
2023/05/10 12:53:07;;;;;;;;;;;;;;;19.04;nan;100188.19;4983612;28;19972;-85
2023/05/10 12:55:33;;;;;;;;;;;;;;;19.10;nan;100186.50;4988779;28;20289;-86
2023/05/10 12:57:58;;;;;;;;;;;;;;;19.24;nan;100182.69;4982798;28;19953;-85
2023/05/10 13:00:23;;;;;;;;;;;;;;;19.31;nan;100185.31;4989009;28;19991;-84
2023/05/10 13:02:49;;;;;;;;;;;;;;;19.23;nan;100185.56;4989868;28;19922;-89
2023/05/10 13:05:14;;;;;;;;;;;;;;;19.25;nan;100194.22;4986830;28;20298;-88